Xiang Tong 9 — 9LU2569 — position and weather

sailwx.info

Track history (hours):
 
Tides and Currents Weather Stations Pressure Air Temp Water Temp Dewpoint Dewpoint Depression Visibility Wind Speed Wind Dir Waves Ship Positions

Xiang Tong 9

Last reported at 2017-Sep-23 20:23 UTC. Time now 2017-Oct-17 05:48 UTC.
Position N 34°52' E 139°40'.
Warning: this ship's position is 23 days out of date.

Length 95 m; draft 4.3 m.

Type: Cargo ship. MMSI: 667001766.

Date/timePositionNaut miles runAvg speedWind from/ knotsBaromVisibWave heightAir tempDewpointWater temp
2017-Sep-23 20:23N 34°52' E 139°40'1 1.8
2017-Sep-23 19:58N 34°52' E 139°39'  
2017-Sep-20 15:54N 34°03' E 134°59'510.5
2017-Sep-20 15:28N 34°07' E 134°59'510.5
2017-Sep-20 14:58N 34°12' E 134°58'11 9.8
2017-Sep-20 13:48N 34°24' E 135°01'4 9.8
2017-Sep-20 13:26N 34°27' E 135°02'4 9.1
2017-Sep-20 13:00N 34°31' E 135°03'4 8.2
2017-Sep-20 12:30N 34°35' E 135°04'3 6.6
2017-Sep-20 12:00N 34°37' E 135°01'4 7.8
2017-Sep-20 11:26N 34°36' E 134°56'  
Track history (hours):
 
Tides and Currents Weather Stations Pressure Air Temp Water Temp Dewpoint Dewpoint Depression Visibility Wind Speed Wind Dir Waves Ship Positions

Xiang Tong 9

Last reported at 2017-Sep-23 20:23 UTC. Time now 2017-Oct-17 05:48 UTC.
Position N 34°52' E 139°40'.
Warning: this ship's position is 23 days out of date.

Length 95 m; draft 4.3 m.

Type: Cargo ship. MMSI: 667001766.

Date/timePositionNaut miles runAvg speedWind from/ knotsBaromVisibWave heightAir tempDewpointWater temp
2017-Sep-23 20:23N 34°52' E 139°40'1 1.8
2017-Sep-23 19:58N 34°52' E 139°39'  
2017-Sep-20 15:54N 34°03' E 134°59'510.5
2017-Sep-20 15:28N 34°07' E 134°59'510.5
2017-Sep-20 14:58N 34°12' E 134°58'11 9.8
2017-Sep-20 13:48N 34°24' E 135°01'4 9.8
2017-Sep-20 13:26N 34°27' E 135°02'4 9.1
2017-Sep-20 13:00N 34°31' E 135°03'4 8.2
2017-Sep-20 12:30N 34°35' E 135°04'3 6.6
2017-Sep-20 12:00N 34°37' E 135°01'4 7.8
2017-Sep-20 11:26N 34°36' E 134°56'  

Dump ship's entire track history